Time;durP1;ratioP1;P1;durP2;ratioP2;P2;SDS_P1;SDS_P2;PMS_P1;PMS_P2;Temp;Humidity;BMP_temperature;BMP_pressure;BME280_temperature;BME280_humidity;BME280_pressure;Samples;Min_cycle;Max_cycle;Signal;HPM_P1;HPM_P2
2023/04/22 00:01:41;;;;;;;16.23;14.43;;;;;;;8.89;87.12;100501.75;3591504;39;20139;-68
2023/04/22 00:04:07;;;;;;;17.63;15.43;;;;;;;9.16;86.69;100547.47;3594097;39;20700;-68
2023/04/22 00:06:34;;;;;;;17.33;15.25;;;;;;;8.98;87.07;100511.94;3592277;39;20067;-68
2023/04/22 00:09:00;;;;;;;17.92;15.07;;;;;;;9.12;87.10;100543.25;3595222;39;20065;-68
2023/04/22 00:11:25;;;;;;;17.63;15.10;;;;;;;8.35;86.78;100419.19;3594738;39;20064;-68
2023/04/22 00:13:51;;;;;;;19.52;16.73;;;;;;;9.08;86.92;100542.59;3594418;39;20056;-68
2023/04/22 00:16:17;;;;;;;16.70;15.00;;;;;;;9.10;86.92;100550.50;3590486;39;20067;-68
2023/04/22 00:18:43;;;;;;;19.30;15.93;;;;;;;9.08;86.63;100545.25;3594190;39;20070;-68
2023/04/22 00:21:08;;;;;;;18.60;15.50;;;;;;;9.06;87.03;100550.69;3593730;39;20052;-68
2023/04/22 00:23:34;;;;;;;17.27;14.95;;;;;;;9.04;86.79;100546.41;3592797;39;20063;-68
2023/04/22 00:26:00;;;;;;;17.35;15.07;;;;;;;9.06;87.37;100550.69;3592626;39;20060;-68
2023/04/22 00:28:26;;;;;;;19.48;15.65;;;;;;;9.06;87.39;100544.47;3590040;39;20054;-68
2023/04/22 00:30:51;;;;;;;16.58;14.73;;;;;;;9.03;86.23;100552.69;3594907;39;20063;-69
2023/04/22 00:33:17;;;;;;;17.25;14.32;;;;;;;9.01;86.45;100542.09;3592151;39;20047;-69
2023/04/22 00:35:45;;;;;;;16.88;15.10;;;;;;;8.27;86.57;100421.44;3593820;39;20066;-69
2023/04/22 00:38:11;;;;;;;17.08;14.77;;;;;;;8.99;86.37;100544.00;3593046;39;20305;-69
2023/04/22 00:40:37;;;;;;;16.50;14.60;;;;;;;8.99;87.14;100541.31;3592199;39;20055;-69
2023/04/22 00:43:03;;;;;;;18.13;15.55;;;;;;;8.99;86.98;100541.31;3593056;39;20293;-69
2023/04/22 00:45:30;;;;;;;16.48;14.75;;;;;;;8.97;87.56;100536.97;3596267;39;20055;-69
2023/04/22 00:47:56;;;;;;;17.23;14.45;;;;;;;9.01;87.66;100542.09;3586308;39;20129;-69
2023/04/22 00:50:22;;;;;;;16.60;13.40;;;;;;;9.05;87.37;100548.97;3591286;39;20464;-69
2023/04/22 00:52:48;;;;;;;15.13;13.52;;;;;;;9.05;87.31;100550.81;3592960;39;20060;-69
2023/04/22 00:55:14;;;;;;;15.70;13.68;;;;;;;8.90;87.17;100531.13;3593481;39;20102;-69
2023/04/22 00:57:41;;;;;;;15.68;13.90;;;;;;;9.00;87.23;100539.47;3595766;39;20060;-68
2023/04/22 01:00:09;;;;;;;14.43;12.88;;;;;;;9.08;87.45;100550.63;3596731;39;20618;-68
2023/04/22 01:02:39;;;;;;;15.77;13.38;;;;;;;9.09;87.74;100549.66;3592863;39;20052;-69
2023/04/22 01:05:08;;;;;;;14.10;12.60;;;;;;;9.11;87.58;100552.25;3595544;39;20283;-68
2023/04/22 01:07:35;;;;;;;14.93;12.63;;;;;;;9.11;87.58;100542.41;3595335;39;20082;-68
2023/04/22 01:10:02;;;;;;;14.00;12.60;;;;;;;8.26;87.29;100399.16;3591981;39;20051;-68
2023/04/22 01:12:28;;;;;;;14.48;12.77;;;;;;;9.16;87.19;100542.09;3593166;39;20067;-68
2023/04/22 01:14:54;;;;;;;14.57;12.32;;;;;;;9.18;87.31;100543.75;3592807;39;20075;-68
2023/04/22 01:17:20;;;;;;;14.32;12.82;;;;;;;9.23;88.36;100541.66;3595991;39;20490;-68
2023/04/22 01:19:47;;;;;;;13.50;12.10;;;;;;;9.26;87.87;100532.53;3589067;39;20056;-68
2023/04/22 01:22:15;;;;;;;13.50;11.93;;;;;;;9.29;87.41;100537.72;3594564;39;20067;-67
2023/04/22 01:24:41;;;;;;;12.68;11.38;;;;;;;9.32;87.15;100533.97;3592391;39;20118;-68
2023/04/22 01:27:07;;;;;;;13.07;11.35;;;;;;;9.34;87.16;100537.44;3594878;39;20043;-69
2023/04/22 01:29:36;;;;;;;13.95;11.77;;;;;;;9.36;86.83;100539.09;3593372;39;20313;-69
2023/04/22 01:32:04;;;;;;;14.40;11.77;;;;;;;9.37;87.04;100535.44;3594908;39;20064;-69
2023/04/22 01:34:31;;;;;;;13.02;11.73;;;;;;;9.39;86.24;100532.69;3592222;39;20090;-68
2023/04/22 01:36:56;;;;;;;12.63;11.32;;;;;;;9.38;86.59;100531.78;3583112;39;20055;-68
2023/04/22 01:39:23;;;;;;;16.33;11.88;;;;;;;9.39;86.19;100530.00;3594460;39;20310;-67
2023/04/22 01:41:50;;;;;;;13.48;11.82;;;;;;;9.38;85.93;100528.25;3593110;39;20067;-68
2023/04/22 01:44:15;;;;;;;12.38;11.10;;;;;;;9.38;86.80;100534.47;3592927;39;20044;-69
2023/04/22 01:46:41;;;;;;;12.85;11.55;;;;;;;9.32;86.39;100529.47;3595924;39;20655;-68
2023/04/22 01:49:06;;;;;;;12.45;11.15;;;;;;;9.39;86.75;100530.00;3594639;39;20048;-68
2023/04/22 01:51:32;;;;;;;13.65;12.25;;;;;;;9.39;86.53;100538.03;3592925;39;20059;-68
2023/04/22 01:53:58;;;;;;;12.98;11.57;;;;;;;9.38;86.69;100523.75;3593375;39;20066;-68
2023/04/22 01:56:24;;;;;;;13.05;11.52;;;;;;;9.41;86.93;100525.38;3593353;39;20115;-68
2023/04/22 01:58:49;;;;;;;13.35;11.95;;;;;;;9.41;86.70;100528.91;3596260;39;20088;-68
2023/04/22 02:01:15;;;;;;;13.88;12.38;;;;;;;9.42;85.97;100525.28;3590813;39;20052;-68
2023/04/22 02:03:40;;;;;;;14.52;12.02;;;;;;;9.41;85.71;100528.91;3591124;39;21190;-68
2023/04/22 02:06:06;;;;;;;12.60;11.25;;;;;;;9.38;86.38;100528.25;3593966;39;20051;-69
2023/04/22 02:08:32;;;;;;;13.68;12.20;;;;;;;9.33;85.98;100525.88;3593214;39;20062;-69
2023/04/22 02:10:59;;;;;;;13.35;12.02;;;;;;;9.34;87.25;100527.56;3593975;39;20099;-68
2023/04/22 02:13:26;;;;;;;14.23;12.73;;;;;;;9.36;86.72;100531.03;3591508;39;20302;-68
2023/04/22 02:15:51;;;;;;;12.90;11.52;;;;;;;8.66;87.11;100401.28;3592017;39;20039;-68
2023/04/22 02:18:18;;;;;;;13.77;12.35;;;;;;;9.43;87.29;100528.84;3592726;39;20091;-68
2023/04/22 02:20:44;;;;;;;12.75;11.52;;;;;;;8.78;86.29;100414.78;3593304;39;21225;-68
2023/04/22 02:23:10;;;;;;;14.35;12.85;;;;;;;9.43;85.97;100523.47;3591921;39;20088;-68
2023/04/22 02:25:38;;;;;;;13.82;12.38;;;;;;;9.41;86.14;100518.19;3590956;39;20056;-69
2023/04/22 02:28:03;;;;;;;14.43;12.57;;;;;;;9.42;86.06;100519.94;3591815;39;20055;-69
2023/04/22 02:30:29;;;;;;;15.90;12.57;;;;;;;8.77;85.50;100420.25;3592327;39;20299;-69
2023/04/22 02:32:55;;;;;;;13.57;11.98;;;;;;;9.42;86.43;100513.69;3591998;39;20051;-69
2023/04/22 02:35:21;;;;;;;14.25;12.40;;;;;;;9.13;86.38;100464.53;3593347;39;20066;-68
2023/04/22 02:37:46;;;;;;;16.10;12.63;;;;;;;9.41;85.76;100509.28;3592186;39;20302;-69
2023/04/22 02:40:12;;;;;;;15.07;12.65;;;;;;;9.42;86.68;100511.88;3594416;39;20073;-68
2023/04/22 02:42:38;;;;;;;14.23;12.40;;;;;;;9.42;85.45;100511.88;3587434;39;20087;-68
2023/04/22 02:45:04;;;;;;;14.48;12.98;;;;;;;9.44;86.42;100499.22;3591166;39;20495;-68
2023/04/22 02:47:30;;;;;;;14.23;12.77;;;;;;;9.44;85.52;100503.72;3598035;39;20120;-68
2023/04/22 02:49:55;;;;;;;13.85;12.25;;;;;;;9.42;85.74;100503.84;3594823;39;20060;-68
2023/04/22 02:52:21;;;;;;;14.95;12.52;;;;;;;9.43;85.70;100500.19;3594956;39;20047;-68
2023/04/22 02:54:46;;;;;;;14.65;13.02;;;;;;;9.42;85.16;100498.47;3589382;39;20068;-69
2023/04/22 02:57:12;;;;;;;15.10;13.60;;;;;;;9.40;85.35;100494.16;3592127;39;20412;-68
2023/04/22 02:59:37;;;;;;;15.15;13.55;;;;;;;9.39;85.49;100495.97;3590369;39;20055;-68
2023/04/22 03:02:03;;;;;;;15.30;13.50;;;;;;;9.38;85.86;100504.97;3592042;39;20047;-68
2023/04/22 03:04:29;;;;;;;15.60;13.77;;;;;;;9.35;86.36;100506.97;3590786;39;20070;-68
2023/04/22 03:06:55;;;;;;;17.40;14.70;;;;;;;9.34;86.19;100500.75;3581903;39;20063;-69
2023/04/22 03:09:20;;;;;;;15.27;13.75;;;;;;;9.34;86.72;100503.44;3591712;39;20044;-69
2023/04/22 03:11:46;;;;;;;16.00;14.38;;;;;;;9.38;86.54;100496.06;3592327;39;20061;-68
2023/04/22 03:14:12;;;;;;;15.25;13.70;;;;;;;9.36;86.53;100498.84;3594248;39;20353;-69
2023/04/22 03:16:37;;;;;;;16.52;14.73;;;;;;;9.33;86.16;100493.69;3593524;39;20063;-68
2023/04/22 03:19:03;;;;;;;16.73;14.80;;;;;;;9.30;86.14;100494.72;3594267;39;20057;-69
2023/04/22 03:21:31;;;;;;;15.98;14.23;;;;;;;9.20;87.18;100471.25;3592876;39;20684;-69
2023/04/22 03:23:56;;;;;;;17.10;15.35;;;;;;;8.60;86.28;100373.94;3591127;39;20060;-69
2023/04/22 03:26:22;;;;;;;16.75;14.98;;;;;;;9.28;86.99;100477.00;3593348;39;20056;-68
2023/04/22 03:28:48;;;;;;;17.42;15.38;;;;;;;9.24;86.43;100468.28;3590603;39;20140;-69
2023/04/22 03:31:13;;;;;;;18.95;16.33;;;;;;;9.24;86.84;100472.78;3593015;39;20595;-69
2023/04/22 03:33:39;;;;;;;18.60;16.00;;;;;;;9.24;86.95;100467.41;3593138;39;20078;-69
2023/04/22 03:36:05;;;;;;;19.95;16.92;;;;;;;8.63;86.67;100358.59;3591442;39;20306;-69
2023/04/22 03:38:31;;;;;;;19.05;17.08;;;;;;;9.24;86.37;100462.91;3593131;39;20125;-68
2023/04/22 03:40:56;;;;;;;19.48;17.38;;;;;;;9.24;86.75;100462.06;3592913;39;20063;-68
2023/04/22 03:43:22;;;;;;;20.67;18.48;;;;;;;9.23;85.72;100463.03;3583560;39;20059;-67
2023/04/22 03:45:50;;;;;;;20.23;18.13;;;;;;;9.21;86.70;100456.88;3591343;39;20081;-68
2023/04/22 03:48:15;;;;;;;20.48;18.35;;;;;;;9.23;87.10;100455.84;3591962;39;20422;-68
2023/04/22 03:50:41;;;;;;;20.90;18.70;;;;;;;9.17;86.66;100433.91;3592504;39;20064;-68
2023/04/22 03:53:07;;;;;;;20.95;18.75;;;;;;;9.23;85.80;100446.94;3593433;39;20358;-68
2023/04/22 03:55:33;;;;;;;20.95;18.73;;;;;;;8.65;86.10;100349.50;3590401;39;20059;-68
2023/04/22 03:57:58;;;;;;;22.42;20.13;;;;;;;9.20;86.09;100444.44;3592360;39;20396;-68
2023/04/22 04:00:24;;;;;;;22.45;20.10;;;;;;;9.14;85.35;100445.69;3593790;39;20052;-68
2023/04/22 04:02:50;;;;;;;21.75;19.33;;;;;;;9.16;86.71;100454.47;3592443;39;20070;-68
2023/04/22 04:05:16;;;;;;;22.52;20.13;;;;;;;9.15;86.47;100442.03;3593309;39;20090;-68
2023/04/22 04:07:41;;;;;;;21.38;19.17;;;;;;;9.15;86.77;100428.63;3590922;39;20167;-68
2023/04/22 04:10:07;;;;;;;22.65;20.17;;;;;;;9.19;86.43;100434.66;3594366;39;20047;-68
2023/04/22 04:12:33;;;;;;;22.63;20.25;;;;;;;9.19;86.26;100435.50;3593393;39;20047;-68
2023/04/22 04:14:59;;;;;;;23.02;20.60;;;;;;;9.18;86.15;100440.97;3593924;39;20305;-68
2023/04/22 04:17:24;;;;;;;22.50;20.02;;;;;;;9.20;86.72;100444.44;3592606;39;20064;-68
2023/04/22 04:19:54;;;;;;;21.80;19.50;;;;;;;9.22;86.39;100434.47;3596025;39;20051;-67
2023/04/22 04:22:20;;;;;;;21.85;19.50;;;;;;;8.88;86.17;100372.22;3594946;39;20083;-68
2023/04/22 04:24:46;;;;;;;21.15;19.02;;;;;;;9.25;85.90;100432.44;3591832;39;20067;-68
2023/04/22 04:27:13;;;;;;;21.98;19.08;;;;;;;9.26;86.63;100438.66;3594100;39;20051;-67
2023/04/22 04:29:40;;;;;;;21.00;18.70;;;;;;;9.26;86.09;100434.19;3593602;39;21305;-67
2023/04/22 04:32:08;;;;;;;21.95;19.65;;;;;;;9.28;86.14;100426.03;3593980;39;20052;-68
2023/04/22 04:34:34;;;;;;;20.80;18.60;;;;;;;9.31;86.24;100436.56;3594045;39;20086;-67
2023/04/22 04:36:59;;;;;;;21.60;19.40;;;;;;;9.33;85.71;100440.03;3597099;39;20056;-68
2023/04/22 04:39:28;;;;;;;20.58;18.45;;;;;;;9.35;86.14;100438.09;3595534;39;20071;-67
2023/04/22 04:41:54;;;;;;;21.35;19.08;;;;;;;9.34;85.67;100435.53;3590095;39;20313;-67
2023/04/22 04:44:20;;;;;;;21.48;19.27;;;;;;;9.34;86.33;100435.53;3593846;39;20133;-68
2023/04/22 04:46:47;;;;;;;20.15;18.02;;;;;;;9.33;87.09;100429.28;3596771;39;20140;-68
2023/04/22 04:49:12;;;;;;;20.83;18.63;;;;;;;9.35;85.89;100427.34;3595824;39;20051;-67
2023/04/22 04:51:38;;;;;;;20.88;18.70;;;;;;;9.33;86.59;100434.66;3595748;39;20233;-68
2023/04/22 04:54:04;;;;;;;21.92;19.02;;;;;;;8.67;86.98;100322.66;3588889;39;20152;-69
2023/04/22 04:56:30;;;;;;;21.42;18.45;;;;;;;9.38;86.78;100437.03;3594105;39;20096;-68
2023/04/22 04:58:56;;;;;;;20.40;18.30;;;;;;;8.78;86.20;100339.75;3598347;39;20066;-68
2023/04/22 05:01:21;;;;;;;19.40;17.42;;;;;;;9.34;86.35;100432.84;3593707;39;20148;-68
2023/04/22 05:03:47;;;;;;;20.15;18.00;;;;;;;9.42;85.77;100449.28;3596285;39;20103;-69
2023/04/22 05:06:13;;;;;;;21.38;18.15;;;;;;;9.42;85.80;100435.88;3598840;39;20059;-68
2023/04/22 05:08:39;;;;;;;21.05;18.00;;;;;;;9.39;86.46;100438.78;3599443;39;20132;-68
2023/04/22 05:11:04;;;;;;;24.70;19.65;;;;;;;9.41;86.82;100443.06;3596091;39;20058;-68
2023/04/22 05:13:30;;;;;;;20.80;17.45;;;;;;;9.44;86.25;100431.28;3596087;39;20754;-69
2023/04/22 05:15:56;;;;;;;20.60;18.42;;;;;;;8.97;86.45;100347.50;3595259;39;21589;-68
2023/04/22 05:18:21;;;;;;;20.23;17.50;;;;;;;9.46;86.77;100424.00;3591310;39;20052;-69
2023/04/22 05:20:47;;;;;;;19.92;17.67;;;;;;;8.87;86.66;100319.56;3594179;39;20052;-68
2023/04/22 05:23:13;;;;;;;18.40;16.42;;;;;;;8.86;85.86;100317.84;3591545;39;20047;-68
2023/04/22 05:25:39;;;;;;;20.45;18.27;;;;;;;9.43;85.77;100430.44;3595081;39;20563;-68
2023/04/22 05:28:04;;;;;;;21.60;19.33;;;;;;;9.47;86.39;100437.31;3596226;39;20092;-68
2023/04/22 05:30:30;;;;;;;34.05;24.17;;;;;;;9.47;86.01;100431.94;3597454;39;20074;-68
2023/04/22 05:32:56;;;;;;;33.85;23.73;;;;;;;9.54;87.01;100429.75;3592961;39;20128;-68
2023/04/22 05:35:21;;;;;;;33.40;25.20;;;;;;;9.60;87.01;100425.81;3593405;39;20385;-68
2023/04/22 05:37:47;;;;;;;30.60;23.63;;;;;;;9.67;87.06;100417.28;3592932;39;20341;-68
2023/04/22 05:40:13;;;;;;;25.98;21.75;;;;;;;9.72;87.39;100420.50;3591862;39;20461;-68
2023/04/22 05:42:38;;;;;;;22.35;20.10;;;;;;;9.78;87.42;100416.56;3593141;39;20138;-68
2023/04/22 05:45:05;;;;;;;22.75;20.10;;;;;;;9.86;87.38;100419.59;3594068;39;20047;-68
2023/04/22 05:47:30;;;;;;;22.02;19.73;;;;;;;9.91;87.28;100422.84;3596828;39;20058;-68
2023/04/22 05:49:56;;;;;;;23.95;21.55;;;;;;;9.25;86.41;100303.72;3593063;39;20048;-68
2023/04/22 05:52:21;;;;;;;23.00;20.55;;;;;;;9.57;86.54;100351.72;3593580;39;20059;-68
2023/04/22 05:54:47;;;;;;;22.85;20.55;;;;;;;9.74;85.84;100377.47;3585689;39;20062;-69
2023/04/22 05:57:13;;;;;;;22.90;20.60;;;;;;;10.07;86.23;100424.53;3592027;39;20271;-69
2023/04/22 05:59:38;;;;;;;23.10;20.80;;;;;;;10.11;85.97;100416.16;3593106;39;20310;-68
2023/04/22 06:02:04;;;;;;;23.42;21.05;;;;;;;10.18;86.37;100424.66;3591873;39;20051;-68
2023/04/22 06:04:30;;;;;;;23.83;21.33;;;;;;;10.27;86.03;100428.59;3593524;39;20055;-68
2023/04/22 06:06:55;;;;;;;24.02;21.45;;;;;;;10.31;86.47;100414.88;3594288;39;20054;-69
2023/04/22 06:09:21;;;;;;;24.27;21.77;;;;;;;10.41;85.20;100418.66;3593712;39;20056;-68
2023/04/22 06:11:47;;;;;;;24.38;21.98;;;;;;;9.38;85.21;100239.41;3593729;39;20327;-69
2023/04/22 06:14:14;;;;;;;24.30;21.25;;;;;;;10.54;85.86;100424.06;3593747;39;20088;-68
2023/04/22 06:16:40;;;;;;;20.02;18.02;;;;;;;10.58;84.61;100428.25;3591593;39;20074;-68
2023/04/22 06:19:06;;;;;;;18.67;16.77;;;;;;;10.64;84.32;100421.59;3592543;39;20158;-69
2023/04/22 06:21:32;;;;;;;20.92;17.80;;;;;;;10.71;84.05;100420.22;3596038;39;20051;-68
2023/04/22 06:24:00;;;;;;;18.02;16.13;;;;;;;10.81;85.05;100415.06;3593166;39;20062;-69
2023/04/22 06:26:26;;;;;;;19.13;17.23;;;;;;;10.91;85.60;100406.25;3595374;39;20043;-69
2023/04/22 06:28:52;;;;;;;17.65;15.95;;;;;;;11.07;85.66;100410.56;3593420;39;20140;-68
2023/04/22 06:31:17;;;;;;;17.98;15.25;;;;;;;11.20;84.71;100416.78;3595924;39;20102;-69
2023/04/22 06:33:43;;;;;;;17.30;15.27;;;;;;;11.31;83.90;100416.88;3595485;39;20314;-69
2023/04/22 06:36:09;;;;;;;17.40;15.60;;;;;;;11.48;83.38;100413.00;3592346;39;20383;-69
2023/04/22 06:38:35;;;;;;;16.58;14.93;;;;;;;11.70;83.04;100420.34;3594029;39;20375;-69
2023/04/22 06:41:01;;;;;;;15.93;14.30;;;;;;;11.96;82.29;100409.53;3591084;39;20058;-69
2023/04/22 06:43:26;;;;;;;14.63;13.13;;;;;;;12.16;81.39;100400.81;3594153;39;20105;-69
2023/04/22 06:45:52;;;;;;;14.40;12.93;;;;;;;12.43;80.96;100396.97;3590905;39;20063;-69
2023/04/22 06:48:17;;;;;;;13.30;11.88;;;;;;;12.66;79.52;100395.22;3593646;39;20051;-70
2023/04/22 06:50:43;;;;;;;14.07;11.77;;;;;;;12.86;77.78;100394.53;3592507;39;20605;-68
2023/04/22 06:53:08;;;;;;;12.25;10.95;;;;;;;12.87;77.42;100396.22;3591818;39;20816;-68
2023/04/22 06:55:35;;;;;;;11.88;10.68;;;;;;;12.85;76.75;100386.56;3592586;39;20075;-69
2023/04/22 06:58:01;;;;;;;11.70;10.50;;;;;;;13.14;77.80;100403.16;3593666;39;20058;-69
2023/04/22 07:00:27;;;;;;;12.48;10.23;;;;;;;13.32;76.77;100400.84;3588644;39;20051;-69
2023/04/22 07:02:52;;;;;;;10.73;9.63;;;;;;;13.57;76.65;100399.72;3596072;39;20051;-69
2023/04/22 07:05:18;;;;;;;11.27;9.45;;;;;;;13.84;74.88;100394.78;3593487;39;20067;-69
2023/04/22 07:07:45;;;;;;;12.48;8.75;;;;;;;14.12;73.93;100401.44;3592936;39;20073;-69
2023/04/22 07:10:13;;;;;;;8.70;7.90;;;;;;;14.28;70.97;100395.63;3589325;39;20074;-71
2023/04/22 07:12:39;;;;;;;10.73;8.30;;;;;;;14.42;71.37;100385.47;3593374;39;20048;-69
2023/04/22 07:15:05;;;;;;;9.50;8.25;;;;;;;14.35;70.83;100382.44;3594067;39;20317;-70
2023/04/22 07:17:31;;;;;;;10.38;7.88;;;;;;;14.35;71.37;100398.66;3594152;39;20410;-69
2023/04/22 07:19:57;;;;;;;10.35;8.20;;;;;;;13.88;71.52;100319.72;3593806;39;20067;-68
2023/04/22 07:22:22;;;;;;;10.80;8.75;;;;;;;14.28;72.51;100394.75;3593688;39;20153;-68
2023/04/22 07:24:48;;;;;;;9.45;8.15;;;;;;;14.21;72.46;100382.72;3595113;39;20067;-69
2023/04/22 07:27:14;;;;;;;8.50;7.72;;;;;;;14.25;72.33;100389.63;3596859;39;20055;-68
2023/04/22 07:29:40;;;;;;;8.57;7.78;;;;;;;14.49;72.28;100398.31;3592507;39;20125;-69
2023/04/22 07:32:05;;;;;;;9.90;8.52;;;;;;;14.66;73.40;100398.78;3591934;39;20784;-69
2023/04/22 07:34:31;;;;;;;9.32;8.30;;;;;;;14.43;71.13;100347.50;3592218;39;20067;-69
2023/04/22 07:36:57;;;;;;;11.27;9.05;;;;;;;14.93;70.55;100396.38;3591958;39;20047;-69
2023/04/22 07:39:22;;;;;;;10.93;8.85;;;;;;;15.17;70.53;100393.41;3585041;39;20047;-69
2023/04/22 07:41:48;;;;;;;8.85;7.95;;;;;;;15.50;69.61;100405.78;3594928;39;20054;-69
2023/04/22 07:44:17;;;;;;;8.73;7.35;;;;;;;15.69;65.90;100405.03;3594853;39;20351;-69
2023/04/22 07:46:43;;;;;;;8.88;7.97;;;;;;;15.74;67.04;100410.03;3595144;39;20052;-69
2023/04/22 07:49:08;;;;;;;8.95;8.05;;;;;;;15.67;67.33;100406.19;3594784;39;21334;-69
2023/04/22 07:51:35;;;;;;;9.38;7.55;;;;;;;15.55;67.04;100392.69;3586790;39;20066;-69
2023/04/22 07:54:00;;;;;;;11.00;8.07;;;;;;;15.48;67.21;100380.69;3593856;39;20083;-69
2023/04/22 07:56:26;;;;;;;8.85;7.85;;;;;;;15.65;67.79;100381.03;3594673;39;20422;-69
2023/04/22 07:58:52;;;;;;;9.15;7.88;;;;;;;15.82;67.90;100380.38;3595933;39;20048;-69
2023/04/22 08:01:17;;;;;;;9.13;7.97;;;;;;;15.97;66.37;100376.28;3593086;39;20078;-69
2023/04/22 08:03:43;;;;;;;9.57;8.02;;;;;;;16.07;65.41;100370.00;3597181;39;20060;-68
2023/04/22 08:06:08;;;;;;;10.30;8.00;;;;;;;16.08;66.79;100367.16;3593935;39;20453;-69
2023/04/22 08:08:34;;;;;;;10.82;8.38;;;;;;;16.15;66.11;100356.59;3599232;39;20055;-69
2023/04/22 08:10:59;;;;;;;14.48;8.07;;;;;;;16.33;64.57;100371.13;3594406;39;20056;-69
2023/04/22 08:13:25;;;;;;;8.27;6.97;;;;;;;15.89;63.77;100259.56;3594355;39;20094;-69
2023/04/22 08:15:51;;;;;;;7.63;6.85;;;;;;;16.76;63.93;100361.72;3596279;39;20047;-69
2023/04/22 08:18:16;;;;;;;7.45;6.75;;;;;;;17.03;61.67;100362.75;3590438;39;20092;-69
2023/04/22 08:20:42;;;;;;;9.80;7.32;;;;;;;17.25;62.04;100364.25;3591492;39;20059;-69
2023/04/22 08:23:08;;;;;;;8.20;7.30;;;;;;;17.29;63.02;100347.53;3594439;39;20153;-69
2023/04/22 08:25:34;;;;;;;8.73;7.28;;;;;;;17.25;60.84;100351.53;3594973;39;20096;-69
2023/04/22 08:27:59;;;;;;;6.85;6.20;;;;;;;17.26;61.42;100350.53;3595063;39;20047;-69
2023/04/22 08:30:25;;;;;;;8.32;6.80;;;;;;;16.82;61.08;100257.13;3594264;39;20051;-69
2023/04/22 08:32:52;;;;;;;6.85;6.18;;;;;;;17.41;59.98;100356.31;3594004;39;20127;-69
2023/04/22 08:35:18;;;;;;;8.65;6.90;;;;;;;17.44;59.48;100342.44;3595410;39;20051;-69
2023/04/22 08:37:44;;;;;;;6.85;6.20;;;;;;;17.77;59.87;100341.00;3595223;39;20075;-69
2023/04/22 08:40:10;;;;;;;7.45;6.75;;;;;;;18.13;58.65;100337.44;3591017;39;20070;-70
2023/04/22 08:42:36;;;;;;;7.10;6.40;;;;;;;18.43;59.61;100320.72;3594537;39;20121;-69
2023/04/22 08:45:03;;;;;;;6.93;5.90;;;;;;;18.63;56.69;100326.81;3595896;39;20056;-69
2023/04/22 08:47:34;;;;;;;7.70;5.22;;;;;;;18.75;55.11;100320.13;3595615;39;20290;-69
2023/04/22 08:50:03;;;;;;;11.75;5.65;;;;;;;18.97;54.31;100315.16;3594161;39;20047;-69
2023/04/22 08:52:31;;;;;;;5.20;4.70;;;;;;;19.10;54.17;100307.38;3598835;39;20055;-69
2023/04/22 08:54:58;;;;;;;5.90;5.30;;;;;;;18.51;54.99;100192.81;3592512;39;20060;-69
2023/04/22 08:57:26;;;;;;;8.18;5.65;;;;;;;19.38;55.48;100323.53;3594320;39;20055;-69
2023/04/22 08:59:54;;;;;;;6.35;5.25;;;;;;;19.33;55.19;100317.69;3594148;39;20062;-69
2023/04/22 09:02:23;;;;;;;8.02;5.15;;;;;;;19.33;52.94;100310.38;3595913;39;20051;-69
2023/04/22 09:04:52;;;;;;;7.68;5.20;;;;;;;19.27;52.31;100312.91;3593309;39;20129;-68
2023/04/22 09:07:25;;;;;;;5.75;5.22;;;;;;;19.29;52.39;100321.78;3595228;39;20043;-69
2023/04/22 09:09:55;;;;;;;5.57;4.43;;;;;;;19.14;52.65;100297.84;3595547;39;20091;-68
2023/04/22 09:12:22;;;;;;;10.65;5.65;;;;;;;19.17;52.00;100323.94;3597107;39;20055;-69
2023/04/22 09:14:48;;;;;;;6.93;5.43;;;;;;;19.14;53.59;100314.19;3593377;39;20056;-68
2023/04/22 09:17:29;;;;;;;9.25;6.13;;;;;;;19.17;53.17;100313.03;3594614;39;20056;-69
2023/04/22 09:20:00;;;;;;;5.47;4.97;;;;;;;19.18;52.76;100318.28;3591818;39;20066;-68
2023/04/22 09:22:46;;;;;;;7.35;5.35;;;;;;;19.22;53.09;100313.41;3593236;39;20055;-69
2023/04/22 09:25:21;;;;;;;6.38;5.78;;;;;;;19.43;54.10;100308.34;3593046;39;20064;-69
2023/04/22 09:27:52;;;;;;;5.57;5.03;;;;;;;19.79;52.79;100307.28;3593951;39;20044;-68
2023/04/22 09:30:35;;;;;;;5.63;5.13;;;;;;;19.44;51.63;100208.34;3584709;39;20121;-70
2023/04/22 09:33:05;;;;;;;6.50;5.17;;;;;;;20.29;51.54;100304.44;3593463;39;20047;-69
2023/04/22 09:35:34;;;;;;;5.82;5.18;;;;;;;20.56;50.39;100299.69;3593393;39;20060;-70
2023/04/22 09:38:06;;;;;;;6.63;4.93;;;;;;;20.77;50.55;100290.94;3593066;39;20065;-69
2023/04/22 09:40:33;;;;;;;5.47;4.97;;;;;;;20.99;49.78;100298.38;3595023;39;20052;-70
2023/04/22 09:43:03;;;;;;;5.45;4.95;;;;;;;21.22;51.08;100303.13;3592960;39;20056;-70
2023/04/22 09:45:38;;;;;;;5.22;4.72;;;;;;;21.49;49.08;100316.34;3594705;39;20058;-68
2023/04/22 09:48:19;;;;;;;5.45;4.75;;;;;;;21.55;48.91;100307.44;3593115;39;20064;-69
2023/04/22 09:50:48;;;;;;;5.53;5.00;;;;;;;21.38;48.55;100314.00;3592995;39;20314;-69
2023/04/22 09:53:17;;;;;;;5.28;4.45;;;;;;;21.24;47.28;100309.25;3592532;39;20066;-69
2023/04/22 09:55:48;;;;;;;7.68;6.47;;;;;;;21.33;48.65;100313.66;3594242;39;20164;-69
2023/04/22 09:58:19;;;;;;;5.70;5.20;;;;;;;21.47;47.82;100310.22;3594358;39;20064;-69
2023/04/22 10:00:51;;;;;;;5.53;5.03;;;;;;;21.46;47.63;100303.03;3596416;39;20139;-69
2023/04/22 10:03:18;;;;;;;6.80;5.50;;;;;;;21.55;48.12;100307.44;3596287;39;20050;-69
2023/04/22 10:05:45;;;;;;;7.00;4.90;;;;;;;21.72;47.83;100305.44;3596834;39;20109;-69
2023/04/22 10:08:13;;;;;;;7.25;5.22;;;;;;;21.81;47.54;100300.78;3599492;39;20050;-69
2023/04/22 10:10:40;;;;;;;6.30;5.30;;;;;;;21.53;47.10;100226.56;3597964;39;20279;-70
2023/04/22 10:13:07;;;;;;;5.40;4.90;;;;;;;21.99;46.69;100304.06;3596182;39;20427;-70
2023/04/22 10:15:50;;;;;;;9.25;5.20;;;;;;;22.31;46.93;100317.75;3593662;39;20462;-70
2023/04/22 10:18:22;;;;;;;5.68;4.70;;;;;;;22.29;45.13;100317.91;3590512;39;20055;-70
2023/04/22 10:20:51;;;;;;;5.57;4.78;;;;;;;22.08;44.95;100320.47;3593161;39;20104;-70
2023/04/22 10:23:21;;;;;;;5.20;4.30;;;;;;;21.96;47.04;100318.13;3591930;39;20475;-70
2023/04/22 10:25:50;;;;;;;6.35;4.50;;;;;;;22.06;46.14;100308.81;3594632;39;20046;-70
2023/04/22 10:28:17;;;;;;;5.07;4.53;;;;;;;21.99;45.46;100304.06;3596142;39;20064;-70
2023/04/22 10:30:42;;;;;;;6.35;4.57;;;;;;;21.95;45.44;100305.47;3594637;39;20062;-70
2023/04/22 10:33:20;;;;;;;4.63;4.18;;;;;;;21.76;45.88;100300.50;3592092;39;20067;-69
2023/04/22 10:36:09;;;;;;;4.88;3.90;;;;;;;21.45;46.63;100303.22;3596038;39;20091;-70
2023/04/22 10:38:37;;;;;;;5.50;3.90;;;;;;;21.32;46.81;100290.09;3594812;39;20414;-70
2023/04/22 10:41:03;;;;;;;4.88;3.47;;;;;;;21.07;46.26;100276.50;3595926;39;20120;-69
2023/04/22 10:43:59;;;;;;;4.60;3.45;;;;;;;20.78;47.46;100282.59;3597016;39;20148;-70
2023/04/22 10:46:34;;;;;;;4.47;3.20;;;;;;;20.48;47.29;100292.31;3595277;39;20051;-69
2023/04/22 10:49:07;;;;;;;3.83;3.40;;;;;;;20.23;48.00;100316.03;3595608;39;20036;-69
2023/04/22 10:51:44;;;;;;;4.50;3.20;;;;;;;19.95;48.67;100304.63;3593903;39;20058;-69
2023/04/22 10:54:25;;;;;;;5.70;3.70;;;;;;;19.69;49.40;100307.44;3595094;39;20060;-70
2023/04/22 10:57:03;;;;;;;4.45;3.22;;;;;;;19.48;50.85;100310.59;3596842;39;20342;-70
2023/04/22 10:59:31;;;;;;;5.65;3.72;;;;;;;19.22;50.75;100306.06;3596354;39;20056;-71
2023/04/22 11:02:06;;;;;;;6.00;3.78;;;;;;;19.11;51.40;100319.97;3592551;39;20125;-69
2023/04/22 11:04:32;;;;;;;4.82;3.80;;;;;;;18.99;52.29;100311.22;3594465;39;20044;-69
2023/04/22 11:07:21;;;;;;;6.60;3.90;;;;;;;18.86;54.28;100315.41;3595088;39;20051;-69
2023/04/22 11:10:00;;;;;;;5.90;4.35;;;;;;;18.73;55.24;100322.13;3597580;39;20096;-69
2023/04/22 11:12:34;;;;;;;6.95;4.43;;;;;;;18.55;57.32;100321.28;3593401;39;20051;-68
2023/04/22 11:15:18;;;;;;;5.30;4.80;;;;;;;18.24;59.59;100313.56;3596184;39;20064;-68
2023/04/22 11:17:52;;;;;;;5.90;5.30;;;;;;;17.39;62.31;100196.19;3592242;39;20063;-68
2023/04/22 11:20:18;;;;;;;;;;;;;;;17.92;63.82;100305.09;3592723;39;20055;-68